createdAt,value
2023-12-29T00:04:43.844Z,26.80
2023-12-29T00:09:45.840Z,22.20
2023-12-29T00:14:47.898Z,21.50
2023-12-29T00:19:49.994Z,19.90
2023-12-29T00:24:52.358Z,20.60
2023-12-29T00:29:54.524Z,16.60
2023-12-29T00:34:57.072Z,16.40
2023-12-29T00:39:59.118Z,17.10
2023-12-29T00:45:01.180Z,16.90
2023-12-29T00:50:03.532Z,14.70
2023-12-29T00:55:06.474Z,16.00
2023-12-29T01:00:12.065Z,13.50
2023-12-29T01:05:21.034Z,13.60
2023-12-29T01:10:23.178Z,14.10
2023-12-29T01:15:25.272Z,13.00
2023-12-29T01:20:28.186Z,11.10
2023-12-29T01:25:30.290Z,12.50
2023-12-29T01:30:32.455Z,11.50
2023-12-29T01:35:34.598Z,12.50
2023-12-29T01:40:48.894Z,11.90
2023-12-29T01:45:55.947Z,12.60
2023-12-29T01:51:00.674Z,11.40
2023-12-29T01:56:02.703Z,13.80
2023-12-29T02:01:06.147Z,13.00
2023-12-29T02:06:10.971Z,13.30
2023-12-29T02:11:14.613Z,11.50
2023-12-29T02:16:23.107Z,12.20
2023-12-29T02:21:26.656Z,11.90
2023-12-29T02:26:32.703Z,17.00
2023-12-29T02:31:40.109Z,13.70
2023-12-29T02:36:44.286Z,11.00
2023-12-29T02:41:46.335Z,11.90
2023-12-29T02:46:48.315Z,11.80
2023-12-29T02:51:51.617Z,11.50
2023-12-29T02:56:53.600Z,10.30
2023-12-29T03:01:55.659Z,11.00
2023-12-29T03:06:57.749Z,9.20
2023-12-29T03:11:59.789Z,9.80
2023-12-29T03:17:01.779Z,9.40
2023-12-29T03:22:03.906Z,9.90
2023-12-29T03:27:06.506Z,9.10
2023-12-29T03:32:08.499Z,9.20
2023-12-29T03:37:10.980Z,10.60
2023-12-29T03:42:13.076Z,12.30
2023-12-29T03:47:15.083Z,9.00
2023-12-29T03:52:17.133Z,11.80
2023-12-29T03:57:19.213Z,11.20
2023-12-29T04:02:21.117Z,9.50
2023-12-29T04:07:23.083Z,11.60
2023-12-29T04:12:25.030Z,11.30
2023-12-29T04:17:27.409Z,11.40
2023-12-29T04:22:29.413Z,11.20
2023-12-29T04:27:31.500Z,10.10
2023-12-29T04:32:33.638Z,9.80
2023-12-29T04:37:35.664Z,12.30
2023-12-29T04:42:37.811Z,11.50
2023-12-29T04:47:39.972Z,11.10
2023-12-29T04:52:42.024Z,12.10
2023-12-29T04:57:43.959Z,13.50
2023-12-29T05:02:45.977Z,13.10
2023-12-29T05:07:48.092Z,11.30
2023-12-29T05:12:50.223Z,11.60
2023-12-29T05:17:52.602Z,10.70
2023-12-29T05:22:54.626Z,9.50
2023-12-29T05:27:56.866Z,10.40
2023-12-29T05:32:59.274Z,12.10
2023-12-29T05:38:01.509Z,11.30
2023-12-29T05:43:03.695Z,8.70
2023-12-29T05:48:06.496Z,8.00
2023-12-29T05:53:08.967Z,8.20
2023-12-29T05:58:11.010Z,8.30
2023-12-29T06:03:13.062Z,7.10
2023-12-29T06:08:15.011Z,7.00
2023-12-29T06:13:16.992Z,5.80
2023-12-29T06:18:19.121Z,6.30
2023-12-29T06:23:21.724Z,7.50
2023-12-29T06:28:23.883Z,7.00
2023-12-29T06:33:26.094Z,8.60
2023-12-29T06:38:28.115Z,7.50
2023-12-29T06:43:30.124Z,8.10
2023-12-29T06:48:32.176Z,8.10
2023-12-29T06:53:34.571Z,8.70
2023-12-29T06:58:37.022Z,7.50
2023-12-29T07:03:39.070Z,8.90
2023-12-29T07:08:41.170Z,9.00
2023-12-29T07:13:43.187Z,8.70
2023-12-29T07:18:45.394Z,8.70
2023-12-29T07:23:47.664Z,9.50
2023-12-29T07:28:49.785Z,8.30
2023-12-29T07:33:53.045Z,9.20
2023-12-29T07:38:55.178Z,8.90
2023-12-29T07:43:57.144Z,9.40
2023-12-29T07:48:59.371Z,11.50
2023-12-29T07:54:01.534Z,11.00
2023-12-29T07:59:04.197Z,8.90
2023-12-29T08:04:06.217Z,10.80
2023-12-29T08:09:08.858Z,12.60
2023-12-29T08:14:10.839Z,11.50
2023-12-29T08:19:13.000Z,10.70
2023-12-29T08:24:15.529Z,9.30
2023-12-29T08:29:17.527Z,9.80
2023-12-29T08:34:20.489Z,9.10
2023-12-29T08:39:23.741Z,9.60
2023-12-29T08:44:26.343Z,9.50
2023-12-29T08:49:28.424Z,9.30
2023-12-29T08:54:30.490Z,8.50
2023-12-29T08:59:32.543Z,9.30
2023-12-29T09:04:34.556Z,9.20
2023-12-29T09:09:36.686Z,7.20
2023-12-29T09:14:38.860Z,8.30
2023-12-29T09:19:41.295Z,9.70
2023-12-29T09:24:43.762Z,8.40
2023-12-29T09:29:45.858Z,8.70
2023-12-29T09:34:48.230Z,7.20
2023-12-29T09:39:50.221Z,7.80
2023-12-29T09:44:52.940Z,14.80
2023-12-29T09:49:55.708Z,10.50
2023-12-29T09:54:59.069Z,8.80
2023-12-29T10:00:01.825Z,8.80
2023-12-29T10:05:12.889Z,7.80
2023-12-29T10:10:19.206Z,7.60
2023-12-29T10:15:34.263Z,6.70
2023-12-29T10:20:55.085Z,8.60
2023-12-29T10:25:59.070Z,10.10
2023-12-29T10:31:01.265Z,8.50
2023-12-29T10:36:06.439Z,11.20
2023-12-29T10:41:16.124Z,8.30
2023-12-29T10:46:18.801Z,8.50
2023-12-29T10:51:29.435Z,6.70
2023-12-29T10:56:32.826Z,7.70
2023-12-29T11:01:36.975Z,7.30
2023-12-29T11:06:45.951Z,8.50
2023-12-29T11:11:48.589Z,6.20
2023-12-29T11:16:53.534Z,5.10
2023-12-29T11:21:59.169Z,4.80
2023-12-29T11:27:01.874Z,2.80
2023-12-29T11:32:07.864Z,4.80
2023-12-29T11:37:22.221Z,3.70
2023-12-29T11:42:32.591Z,4.20
2023-12-29T11:47:38.573Z,3.80
2023-12-29T11:52:41.538Z,3.20
2023-12-29T11:57:43.971Z,6.40
2023-12-29T12:02:46.857Z,3.10
2023-12-29T12:07:50.197Z,3.50
2023-12-29T12:12:53.457Z,2.80
2023-12-29T12:17:56.915Z,3.60
2023-12-29T12:23:06.422Z,2.90
2023-12-29T12:28:09.203Z,3.10
2023-12-29T12:33:15.427Z,3.30
2023-12-29T12:38:25.864Z,4.60
2023-12-29T12:43:29.220Z,2.50
2023-12-29T12:48:47.201Z,4.60
2023-12-29T12:53:50.434Z,4.30
2023-12-29T12:58:52.524Z,3.10
2023-12-29T13:03:58.606Z,3.70
2023-12-29T13:09:10.129Z,3.40
2023-12-29T13:14:24.695Z,3.60
2023-12-29T13:19:28.765Z,3.60
2023-12-29T13:24:30.961Z,3.50
2023-12-29T13:29:35.519Z,3.70
2023-12-29T13:35:06.300Z,3.70
2023-12-29T13:40:14.977Z,4.60
2023-12-29T13:45:19.395Z,5.10
2023-12-29T13:50:21.544Z,7.00
2023-12-29T13:55:26.332Z,5.50
2023-12-29T14:00:30.208Z,5.70
2023-12-29T14:05:48.655Z,5.70
2023-12-29T14:10:50.675Z,6.10
2023-12-29T14:15:53.210Z,6.80
2023-12-29T14:20:55.554Z,5.00
2023-12-29T14:26:04.918Z,4.60
2023-12-29T14:31:06.931Z,4.80
2023-12-29T14:36:09.054Z,9.00
2023-12-29T14:41:11.000Z,8.80
2023-12-29T14:46:13.402Z,11.80
2023-12-29T14:51:16.754Z,9.20
2023-12-29T14:56:19.416Z,10.40
2023-12-29T15:01:21.408Z,9.70
2023-12-29T15:06:23.667Z,9.40
2023-12-29T15:11:25.718Z,10.30
2023-12-29T15:16:27.742Z,8.40
2023-12-29T15:21:29.843Z,10.40
2023-12-29T15:26:31.810Z,9.90
2023-12-29T15:31:33.806Z,9.20
2023-12-29T15:36:36.680Z,10.40
2023-12-29T15:41:38.800Z,11.30
2023-12-29T15:46:40.840Z,10.90
2023-12-29T15:51:42.869Z,9.50
2023-12-29T15:56:44.867Z,11.10
2023-12-29T16:01:47.204Z,11.60
2023-12-29T16:06:49.218Z,11.60
2023-12-29T16:11:55.799Z,10.90
2023-12-29T16:16:57.847Z,13.70
2023-12-29T16:21:59.910Z,13.70
2023-12-29T16:27:04.125Z,12.70
2023-12-29T16:32:06.778Z,10.30
2023-12-29T16:37:09.915Z,10.30
2023-12-29T16:42:17.332Z,10.40
2023-12-29T16:47:20.149Z,15.00
2023-12-29T16:52:22.184Z,13.60
2023-12-29T16:57:24.235Z,12.80
2023-12-29T17:02:26.755Z,12.30
2023-12-29T17:07:28.861Z,11.20
2023-12-29T17:12:30.858Z,10.00
2023-12-29T17:17:32.862Z,12.10
2023-12-29T17:22:35.109Z,12.20
2023-12-29T17:27:37.605Z,11.00
2023-12-29T17:32:39.762Z,10.40
2023-12-29T17:37:41.745Z,15.30
2023-12-29T17:42:43.927Z,22.80
2023-12-29T17:47:46.501Z,13.00
2023-12-29T17:52:48.679Z,12.70
2023-12-29T17:57:50.798Z,14.20
2023-12-29T18:02:53.127Z,15.40
2023-12-29T18:07:55.356Z,15.30
2023-12-29T18:13:00.308Z,12.90
2023-12-29T18:18:03.332Z,11.70
2023-12-29T18:23:08.488Z,13.90
2023-12-29T18:28:11.056Z,15.20
2023-12-29T18:33:13.350Z,17.00
2023-12-29T18:38:15.983Z,13.00
2023-12-29T18:43:20.115Z,15.70
2023-12-29T18:48:25.036Z,14.30
2023-12-29T18:53:27.520Z,13.80
2023-12-29T18:58:29.521Z,13.70
2023-12-29T19:03:33.981Z,12.30
2023-12-29T19:08:36.151Z,13.10
2023-12-29T19:13:42.311Z,13.00
2023-12-29T19:18:45.070Z,12.20
2023-12-29T19:23:47.129Z,12.10
2023-12-29T19:28:50.716Z,15.20
2023-12-29T19:33:54.572Z,11.70
2023-12-29T19:38:56.754Z,12.80
2023-12-29T19:43:58.899Z,13.80
2023-12-29T19:49:01.984Z,13.60
2023-12-29T19:54:06.141Z,14.50
2023-12-29T19:59:08.353Z,12.10
2023-12-29T20:04:10.303Z,9.80
2023-12-29T20:09:14.906Z,10.90
2023-12-29T20:14:19.408Z,16.10
2023-12-29T20:19:22.405Z,16.60
2023-12-29T20:24:26.630Z,14.40
2023-12-29T20:29:30.348Z,11.90
2023-12-29T20:34:34.646Z,10.90
2023-12-29T20:39:37.386Z,10.30
2023-12-29T20:44:40.974Z,12.50
2023-12-29T20:49:44.548Z,10.20
2023-12-29T20:54:52.095Z,9.90
2023-12-29T20:59:54.166Z,8.50
2023-12-29T21:04:57.622Z,12.00
2023-12-29T21:10:02.291Z,9.10
2023-12-29T21:15:11.794Z,9.20
2023-12-29T21:20:14.762Z,9.00
2023-12-29T21:25:17.940Z,8.90
2023-12-29T21:30:20.493Z,8.20
2023-12-29T21:35:24.497Z,9.00
2023-12-29T21:40:27.265Z,7.70
2023-12-29T21:45:29.387Z,10.30
2023-12-29T21:50:31.750Z,9.20
2023-12-29T21:55:37.100Z,8.40
2023-12-29T22:00:42.376Z,7.50
2023-12-29T22:05:44.484Z,6.10
2023-12-29T22:10:49.573Z,7.40
2023-12-29T22:15:51.578Z,9.20
2023-12-29T22:20:53.556Z,6.70
2023-12-29T22:25:57.312Z,7.90
2023-12-29T22:30:59.950Z,7.60
2023-12-29T22:36:02.289Z,8.00
2023-12-29T22:41:12.581Z,7.40
2023-12-29T22:46:22.458Z,8.00
2023-12-29T22:51:30.069Z,6.60
2023-12-29T22:56:32.077Z,6.30
2023-12-29T23:01:34.239Z,8.30
2023-12-29T23:06:36.765Z,6.50
2023-12-29T23:11:38.950Z,7.30
2023-12-29T23:16:40.975Z,6.70
2023-12-29T23:21:43.010Z,7.70
2023-12-29T23:26:45.076Z,8.30
2023-12-29T23:31:49.476Z,6.70
2023-12-29T23:36:51.558Z,7.10
2023-12-29T23:41:53.781Z,7.00
2023-12-29T23:46:55.895Z,6.70
2023-12-29T23:51:58.180Z,6.20
2023-12-29T23:57:00.338Z,7.20
